createdAt,value
2018-09-27T00:00:48.955Z,0.00
2018-09-27T00:01:48.968Z,0.00
2018-09-27T00:02:48.983Z,0.00
2018-09-27T00:03:49.012Z,0.00
2018-09-27T00:04:49.028Z,0.00
2018-09-27T00:05:49.047Z,0.00
2018-09-27T00:06:49.062Z,0.00
2018-09-27T00:07:49.088Z,0.00
2018-09-27T00:08:49.101Z,0.00
2018-09-27T00:09:49.127Z,0.00
2018-09-27T00:10:49.141Z,0.00
2018-09-27T00:11:49.167Z,0.00
2018-09-27T00:12:49.180Z,0.00
2018-09-27T00:13:49.205Z,0.00
2018-09-27T00:14:49.219Z,0.00
2018-09-27T00:15:49.245Z,0.00
2018-09-27T00:16:49.261Z,0.00
2018-09-27T00:17:49.284Z,0.00
2018-09-27T00:18:49.300Z,0.00
2018-09-27T00:19:49.326Z,0.00
2018-09-27T00:20:49.338Z,0.00
2018-09-27T00:21:49.377Z,0.00
2018-09-27T00:22:49.378Z,0.00
2018-09-27T00:23:49.403Z,0.00
2018-09-27T00:24:49.418Z,0.00
2018-09-27T00:25:49.442Z,0.00
2018-09-27T00:26:49.456Z,0.00
2018-09-27T00:27:49.481Z,0.00
2018-09-27T00:28:49.496Z,0.00
2018-09-27T00:29:49.522Z,0.00
2018-09-27T00:30:49.535Z,0.00
2018-09-27T00:31:49.561Z,0.00
2018-09-27T00:32:49.574Z,0.00
2018-09-27T00:33:49.603Z,0.00
2018-09-27T00:34:49.613Z,0.00
2018-09-27T00:35:49.640Z,0.00
2018-09-27T00:36:49.665Z,0.00
2018-09-27T00:37:49.678Z,0.00
2018-09-27T00:38:49.705Z,0.00
2018-09-27T00:39:49.719Z,0.00
2018-09-27T00:40:49.746Z,0.00
2018-09-27T00:41:49.758Z,0.00
2018-09-27T00:42:49.784Z,0.00
2018-09-27T00:43:49.798Z,0.00
2018-09-27T00:44:49.823Z,0.00
2018-09-27T00:45:49.837Z,0.00
2018-09-27T00:46:49.862Z,0.00
2018-09-27T00:47:49.877Z,0.00
2018-09-27T00:48:49.903Z,0.00
2018-09-27T00:49:49.915Z,0.00
2018-09-27T00:50:49.960Z,0.00
2018-09-27T00:51:49.956Z,0.00
2018-09-27T00:52:49.982Z,0.00
2018-09-27T00:53:49.994Z,0.00
2018-09-27T00:54:50.020Z,0.00
2018-09-27T00:55:50.039Z,0.00
2018-09-27T00:56:50.060Z,0.00
2018-09-27T00:57:50.086Z,0.00
2018-09-27T00:58:50.101Z,0.00
2018-09-27T00:59:50.125Z,0.00
2018-09-27T01:00:50.139Z,0.00
2018-09-27T01:01:50.164Z,0.00
2018-09-27T01:02:50.178Z,0.00
2018-09-27T01:03:50.208Z,0.00
2018-09-27T01:04:50.218Z,0.00
2018-09-27T01:05:50.243Z,0.00
2018-09-27T01:06:50.256Z,0.00
2018-09-27T01:07:50.282Z,0.00
2018-09-27T01:08:50.297Z,0.00
2018-09-27T01:09:50.322Z,0.00
2018-09-27T01:10:50.335Z,0.00
2018-09-27T01:11:50.361Z,0.00
2018-09-27T01:12:50.375Z,0.00
2018-09-27T01:13:50.402Z,0.00
2018-09-27T01:14:50.417Z,0.00
2018-09-27T01:15:50.441Z,0.00
2018-09-27T01:16:50.468Z,0.00
2018-09-27T01:17:50.487Z,0.00
2018-09-27T01:18:50.506Z,0.00
2018-09-27T01:19:50.524Z,0.00
2018-09-27T01:20:50.545Z,0.00
2018-09-27T01:21:50.560Z,0.00
2018-09-27T01:22:50.586Z,0.00
2018-09-27T01:23:50.598Z,0.00
2018-09-27T01:24:50.624Z,0.00
2018-09-27T01:25:50.638Z,0.00
2018-09-27T01:26:50.664Z,0.00
2018-09-27T01:27:50.676Z,0.00
2018-09-27T01:28:50.703Z,0.00
2018-09-27T01:29:50.717Z,0.00
2018-09-27T01:30:50.747Z,0.00
2018-09-27T01:31:50.757Z,0.00
2018-09-27T01:32:50.781Z,0.00
2018-09-27T01:33:50.820Z,0.00
2018-09-27T01:34:50.821Z,0.00
2018-09-27T01:35:50.847Z,0.00
2018-09-27T01:36:50.860Z,0.00
2018-09-27T01:37:50.886Z,0.00
2018-09-27T01:38:50.906Z,0.00
2018-09-27T01:39:50.927Z,0.00
2018-09-27T01:40:50.964Z,0.00
2018-09-27T01:41:50.966Z,0.00
2018-09-27T01:42:50.980Z,0.00
2018-09-27T01:43:51.019Z,0.00
2018-09-27T01:44:51.019Z,0.00
2018-09-27T01:45:51.044Z,0.00
2018-09-27T01:46:51.072Z,0.00
2018-09-27T01:47:51.088Z,0.00
2018-09-27T01:48:51.118Z,0.00
2018-09-27T01:49:51.124Z,0.00
2018-09-27T01:50:51.149Z,0.00
2018-09-27T01:51:51.163Z,0.00
2018-09-27T01:52:51.190Z,0.00
2018-09-27T01:53:51.203Z,0.00
2018-09-27T01:54:51.228Z,0.00
2018-09-27T01:55:51.244Z,0.00
2018-09-27T01:56:51.269Z,0.00
2018-09-27T01:57:51.283Z,0.00
2018-09-27T01:58:51.307Z,0.00
2018-09-27T01:59:51.322Z,0.00
2018-09-27T02:00:51.347Z,0.00
2018-09-27T02:01:51.361Z,0.00
2018-09-27T02:02:51.387Z,0.00
2018-09-27T02:03:51.412Z,0.00
2018-09-27T02:04:51.426Z,0.00
2018-09-27T02:05:51.452Z,0.00
2018-09-27T02:06:51.469Z,0.00
2018-09-27T02:07:51.490Z,0.00
2018-09-27T02:08:51.505Z,0.00
2018-09-27T02:09:51.531Z,0.00
2018-09-27T02:10:51.546Z,0.00
2018-09-27T02:11:51.572Z,0.00
2018-09-27T02:12:51.587Z,0.00
2018-09-27T02:13:51.610Z,0.00
2018-09-27T02:14:51.625Z,0.00
2018-09-27T02:15:51.650Z,0.00
2018-09-27T02:16:51.688Z,0.00
2018-09-27T02:17:51.690Z,0.00
2018-09-27T02:18:51.714Z,0.00
2018-09-27T02:19:51.727Z,0.00
2018-09-27T02:20:51.754Z,0.00
2018-09-27T02:21:51.773Z,0.00
2018-09-27T02:22:51.794Z,0.00
2018-09-27T02:23:51.807Z,0.00
2018-09-27T02:24:51.833Z,0.00
2018-09-27T02:25:51.849Z,0.00
2018-09-27T02:26:51.873Z,0.00
2018-09-27T02:27:51.886Z,0.00
2018-09-27T02:28:51.911Z,0.00
2018-09-27T02:29:51.939Z,0.00
2018-09-27T02:30:51.952Z,0.00
2018-09-27T02:31:51.978Z,0.00
2018-09-27T02:32:51.998Z,0.00
2018-09-27T02:33:52.017Z,0.00
2018-09-27T02:34:52.031Z,0.00
2018-09-27T02:35:52.057Z,0.00
2018-09-27T02:36:52.074Z,0.00
2018-09-27T02:37:52.095Z,0.00
2018-09-27T02:38:52.112Z,0.00
2018-09-27T02:39:52.135Z,0.00
2018-09-27T02:40:52.149Z,0.00
2018-09-27T02:41:52.178Z,0.00
2018-09-27T02:42:52.199Z,0.00
2018-09-27T02:43:52.214Z,0.00
2018-09-27T02:44:52.240Z,0.00
2018-09-27T02:45:52.255Z,0.00
2018-09-27T02:46:52.280Z,0.00
2018-09-27T02:47:52.293Z,0.00
2018-09-27T02:48:52.319Z,0.00
2018-09-27T02:49:52.333Z,0.00
2018-09-27T02:50:52.357Z,0.00
2018-09-27T02:51:52.372Z,0.00
2018-09-27T02:52:52.397Z,0.00
2018-09-27T02:53:52.411Z,0.00
2018-09-27T02:54:52.436Z,0.00
2018-09-27T02:55:52.461Z,0.00
2018-09-27T02:56:52.476Z,0.00
2018-09-27T02:57:52.502Z,0.00
2018-09-27T02:58:52.516Z,0.00
2018-09-27T02:59:52.543Z,0.00
2018-09-27T03:00:52.555Z,0.00
2018-09-27T03:01:52.582Z,0.00
2018-09-27T03:02:52.595Z,0.00
2018-09-27T03:03:52.619Z,0.00
2018-09-27T03:04:52.639Z,0.00
2018-09-27T03:05:52.661Z,0.00
2018-09-27T03:06:52.677Z,0.00
2018-09-27T03:07:52.701Z,0.00
2018-09-27T03:08:52.714Z,0.00
2018-09-27T03:09:52.739Z,0.00
2018-09-27T03:10:52.754Z,0.00
2018-09-27T03:11:52.782Z,0.00
2018-09-27T03:12:52.807Z,0.00
2018-09-27T03:13:52.856Z,0.00
2018-09-27T03:14:52.848Z,0.00
2018-09-27T03:15:52.857Z,0.00
2018-09-27T03:16:52.883Z,0.00
2018-09-27T03:17:52.897Z,0.00
2018-09-27T03:18:52.944Z,0.00
2018-09-27T03:19:52.935Z,0.00
2018-09-27T03:20:52.973Z,0.00
2018-09-27T03:21:52.977Z,0.00
2018-09-27T03:22:53.002Z,0.00
2018-09-27T03:23:53.016Z,0.00
2018-09-27T03:24:53.040Z,0.00
2018-09-27T03:25:53.072Z,0.00
2018-09-27T03:26:53.080Z,0.00
2018-09-27T03:27:53.107Z,0.00
2018-09-27T03:28:53.132Z,0.00
2018-09-27T03:29:53.145Z,0.00
2018-09-27T03:30:53.160Z,0.00
2018-09-27T03:31:53.186Z,0.00
2018-09-27T03:32:53.199Z,0.00
2018-09-27T03:33:53.227Z,0.00
2018-09-27T03:34:53.239Z,0.00
2018-09-27T03:35:53.265Z,0.00
2018-09-27T03:36:53.279Z,0.00
2018-09-27T03:37:53.304Z,0.00
2018-09-27T03:38:53.329Z,0.00
2018-09-27T03:39:53.433Z,0.00
2018-09-27T03:40:53.370Z,0.00
2018-09-27T03:41:53.383Z,0.00
2018-09-27T03:42:53.410Z,0.00
2018-09-27T03:43:53.423Z,0.00
2018-09-27T03:44:53.449Z,0.00
2018-09-27T03:45:53.461Z,0.00
2018-09-27T03:46:53.487Z,0.00
2018-09-27T03:47:53.501Z,0.00
2018-09-27T03:48:53.528Z,0.00
2018-09-27T03:49:53.554Z,0.00
2018-09-27T03:50:53.567Z,0.00
2018-09-27T03:51:53.593Z,0.00
2018-09-27T03:52:53.608Z,0.00
2018-09-27T03:53:53.633Z,0.00
2018-09-27T03:54:53.647Z,0.00
2018-09-27T03:55:53.672Z,0.00
2018-09-27T03:56:53.685Z,0.00
2018-09-27T03:57:53.711Z,0.00
2018-09-27T03:58:53.725Z,0.00
2018-09-27T03:59:53.750Z,0.00
2018-09-27T04:00:53.767Z,0.00
2018-09-27T04:01:53.789Z,0.00
2018-09-27T04:02:53.804Z,0.00
2018-09-27T04:03:53.830Z,0.00
2018-09-27T04:04:53.857Z,0.00
2018-09-27T04:05:53.869Z,0.00
2018-09-27T04:06:53.895Z,0.00
2018-09-27T04:07:53.908Z,0.00
2018-09-27T04:08:53.939Z,0.00
2018-09-27T04:09:53.948Z,0.00
2018-09-27T04:10:53.974Z,0.00
2018-09-27T04:11:53.998Z,0.00
2018-09-27T04:12:54.012Z,0.00
2018-09-27T04:13:54.043Z,0.00
2018-09-27T04:14:54.052Z,0.00
2018-09-27T04:15:54.101Z,0.00
2018-09-27T04:16:54.093Z,0.00
2018-09-27T04:17:54.118Z,0.00
2018-09-27T04:18:54.131Z,0.00
2018-09-27T04:19:54.157Z,0.00
2018-09-27T04:20:54.169Z,0.00
2018-09-27T04:21:54.276Z,0.00
2018-09-27T04:22:54.209Z,0.00
2018-09-27T04:23:54.249Z,0.00
2018-09-27T04:24:54.249Z,0.00
2018-09-27T04:25:54.287Z,0.00
2018-09-27T04:26:54.289Z,0.00
2018-09-27T04:27:54.331Z,0.00
2018-09-27T04:28:54.341Z,0.00
2018-09-27T04:29:54.353Z,0.00
2018-09-27T04:30:54.380Z,4.00
2018-09-27T04:31:54.393Z,4.00
2018-09-27T04:32:54.420Z,0.00
2018-09-27T04:33:54.497Z,0.00
2018-09-27T04:34:54.458Z,4.00
2018-09-27T04:35:54.473Z,0.00
2018-09-27T04:36:54.499Z,4.00
2018-09-27T04:37:54.513Z,4.00
2018-09-27T04:38:54.537Z,8.00
2018-09-27T04:39:54.573Z,8.00
2018-09-27T04:40:54.585Z,8.00
2018-09-27T04:41:54.591Z,8.00
2018-09-27T04:42:54.616Z,12.00
2018-09-27T04:43:54.641Z,12.00
2018-09-27T04:44:54.660Z,12.00
2018-09-27T04:45:54.711Z,20.00
2018-09-27T04:46:54.696Z,24.00
2018-09-27T04:47:54.734Z,24.00
2018-09-27T04:48:54.735Z,28.00
2018-09-27T04:49:54.762Z,32.00
2018-09-27T04:50:54.773Z,36.00
2018-09-27T04:51:54.874Z,40.00
2018-09-27T04:52:54.825Z,44.00
2018-09-27T04:53:54.846Z,48.00
2018-09-27T04:54:54.854Z,60.00
2018-09-27T04:55:54.879Z,76.00
2018-09-27T04:56:54.904Z,84.00
2018-09-27T04:57:54.920Z,88.00
2018-09-27T04:58:54.945Z,100.00
2018-09-27T04:59:54.971Z,112.00
2018-09-27T05:00:54.985Z,120.00
2018-09-27T05:01:54.997Z,128.00
2018-09-27T05:02:55.024Z,140.00
2018-09-27T05:03:55.117Z,148.00
2018-09-27T05:04:55.063Z,168.00
2018-09-27T05:05:55.077Z,192.00
2018-09-27T05:06:55.103Z,208.00
2018-09-27T05:07:55.119Z,216.00
2018-09-27T05:08:55.154Z,224.00
2018-09-27T05:09:55.167Z,232.00
2018-09-27T05:10:55.182Z,244.00
2018-09-27T05:11:55.208Z,268.00
2018-09-27T05:12:55.221Z,304.00
2018-09-27T05:13:55.248Z,340.00
2018-09-27T05:14:55.261Z,404.00
2018-09-27T05:15:55.330Z,416.00
2018-09-27T05:16:55.300Z,444.00
2018-09-27T05:17:55.329Z,492.00
2018-09-27T05:18:55.345Z,528.00
2018-09-27T05:19:55.367Z,532.00
2018-09-27T05:20:55.378Z,540.00
2018-09-27T05:21:55.405Z,548.00
2018-09-27T05:22:55.419Z,604.00
2018-09-27T05:23:55.445Z,740.00
2018-09-27T05:24:55.472Z,780.00
2018-09-27T05:25:55.485Z,796.00
2018-09-27T05:26:55.510Z,816.00
2018-09-27T05:27:55.528Z,832.00
2018-09-27T05:28:55.550Z,840.00
2018-09-27T05:29:55.562Z,852.00
2018-09-27T05:30:55.589Z,840.00
2018-09-27T05:31:55.605Z,872.00
2018-09-27T05:32:55.629Z,964.00
2018-09-27T05:33:55.643Z,972.00
2018-09-27T05:34:55.668Z,980.00
2018-09-27T05:35:55.693Z,1044.00
2018-09-27T05:36:55.708Z,1084.00
2018-09-27T05:37:55.733Z,1044.00
2018-09-27T05:38:55.746Z,976.00
2018-09-27T05:39:55.774Z,1012.00
2018-09-27T05:40:55.788Z,1236.00
2018-09-27T05:41:55.818Z,1584.00
2018-09-27T05:42:55.825Z,1812.00
2018-09-27T05:43:55.855Z,1780.00
2018-09-27T05:44:55.866Z,1760.00
2018-09-27T05:45:55.894Z,1688.00
2018-09-27T05:46:55.906Z,1720.00
2018-09-27T05:47:55.931Z,1944.00
2018-09-27T05:48:55.957Z,2084.00
2018-09-27T05:49:56.034Z,2016.00
2018-09-27T05:50:55.998Z,1948.00
2018-09-27T05:51:56.015Z,2116.00
2018-09-27T05:52:56.052Z,2420.00
2018-09-27T05:53:56.050Z,2252.00
2018-09-27T05:54:56.076Z,2076.00
2018-09-27T05:55:56.125Z,2160.00
2018-09-27T05:56:56.114Z,2516.00
2018-09-27T05:57:56.142Z,2372.00
2018-09-27T05:58:56.155Z,2212.00
2018-09-27T05:59:56.181Z,2152.00
2018-09-27T06:00:56.194Z,2284.00
2018-09-27T06:01:56.269Z,2500.00
2018-09-27T06:02:56.234Z,2680.00
2018-09-27T06:03:56.260Z,3248.00
2018-09-27T06:04:56.273Z,3528.00
2018-09-27T06:05:56.300Z,3484.00
2018-09-27T06:06:56.325Z,3276.00
2018-09-27T06:07:56.339Z,3332.00
2018-09-27T06:08:56.364Z,3572.00
2018-09-27T06:09:56.379Z,3888.00
2018-09-27T06:10:56.408Z,4332.00
2018-09-27T06:11:56.417Z,4476.00
2018-09-27T06:12:56.444Z,4564.00
2018-09-27T06:13:56.470Z,4424.00
2018-09-27T06:14:56.484Z,4076.00
2018-09-27T06:15:56.508Z,4128.00
2018-09-27T06:16:56.522Z,4304.00
2018-09-27T06:17:56.548Z,4564.00
2018-09-27T06:18:56.560Z,4380.00
2018-09-27T06:19:56.888Z,4380.00
2018-09-27T06:20:56.613Z,4328.00
2018-09-27T06:21:56.627Z,4108.00
2018-09-27T06:22:56.653Z,4068.00
2018-09-27T06:23:56.666Z,4232.00
2018-09-27T06:24:56.692Z,4220.00
2018-09-27T06:25:56.751Z,4252.00
2018-09-27T06:26:56.732Z,4396.00
2018-09-27T06:27:56.758Z,4676.00
2018-09-27T06:28:56.772Z,4584.00
2018-09-27T06:29:56.797Z,4600.00
2018-09-27T06:30:56.811Z,4608.00
2018-09-27T06:31:56.838Z,4532.00
2018-09-27T06:32:56.864Z,4464.00
2018-09-27T06:33:56.876Z,4456.00
2018-09-27T06:34:56.920Z,4448.00
2018-09-27T06:35:56.916Z,4752.00
2018-09-27T06:36:56.942Z,5168.00
2018-09-27T06:37:56.973Z,5272.00
2018-09-27T06:38:56.983Z,5048.00
2018-09-27T06:39:57.009Z,5200.00
2018-09-27T06:40:57.021Z,5580.00
2018-09-27T06:41:57.050Z,5468.00
2018-09-27T06:42:57.073Z,5152.00
2018-09-27T06:43:57.085Z,5168.00
2018-09-27T06:44:57.112Z,5328.00
2018-09-27T06:45:57.137Z,5344.00
2018-09-27T06:46:57.152Z,5104.00
2018-09-27T06:47:57.178Z,4804.00
2018-09-27T06:48:57.192Z,4620.00
2018-09-27T06:49:57.218Z,4624.00
2018-09-27T06:50:57.231Z,4996.00
2018-09-27T06:51:57.265Z,5576.00
2018-09-27T06:52:57.284Z,5912.00
2018-09-27T06:53:57.296Z,5400.00
2018-09-27T06:54:57.364Z,4872.00
2018-09-27T06:55:57.505Z,4976.00
2018-09-27T06:56:57.362Z,5792.00
2018-09-27T06:57:57.388Z,6152.00
2018-09-27T06:58:57.401Z,5772.00
2018-09-27T06:59:57.426Z,6060.00
2018-09-27T07:00:57.488Z,6152.00
2018-09-27T07:01:57.467Z,6452.00
2018-09-27T07:02:57.493Z,6584.00
2018-09-27T07:03:57.505Z,6852.00
2018-09-27T07:04:57.568Z,7144.00
2018-09-27T07:05:57.557Z,6908.00
2018-09-27T07:06:57.572Z,6688.00
2018-09-27T07:07:57.597Z,6792.00
2018-09-27T07:08:57.623Z,7064.00
2018-09-27T07:09:57.636Z,7696.00
2018-09-27T07:10:57.662Z,7772.00
2018-09-27T07:11:57.698Z,7640.00
2018-09-27T07:12:57.703Z,7904.00
2018-09-27T07:13:57.732Z,8256.00
2018-09-27T07:14:57.755Z,8448.00
2018-09-27T07:15:57.768Z,8372.00
2018-09-27T07:16:57.793Z,8328.00
2018-09-27T07:17:57.807Z,8616.00
2018-09-27T07:18:57.834Z,8764.00
2018-09-27T07:19:57.847Z,8936.00
2018-09-27T07:20:57.872Z,9036.00
2018-09-27T07:21:57.914Z,9300.00
2018-09-27T07:22:57.913Z,8928.00
2018-09-27T07:23:57.939Z,8696.00
2018-09-27T07:24:57.992Z,9004.00
2018-09-27T07:25:57.978Z,8564.00
2018-09-27T07:26:58.038Z,8768.00
2018-09-27T07:27:58.043Z,9008.00
2018-09-27T07:28:58.044Z,9224.00
2018-09-27T07:29:58.069Z,9460.00
2018-09-27T07:30:58.121Z,9336.00
2018-09-27T07:31:58.107Z,9692.00
2018-09-27T07:32:58.133Z,9748.00
2018-09-27T07:33:58.160Z,9896.00
2018-09-27T07:34:58.174Z,10000.00
2018-09-27T07:35:58.200Z,9908.00
2018-09-27T07:36:58.226Z,9204.00
2018-09-27T07:37:58.242Z,9428.00
2018-09-27T07:38:58.265Z,10328.00
2018-09-27T07:39:58.290Z,11164.00
2018-09-27T07:40:58.305Z,11592.00
2018-09-27T07:41:58.330Z,11600.00
2018-09-27T07:42:58.357Z,10792.00
2018-09-27T07:43:58.369Z,9780.00
2018-09-27T07:44:58.395Z,10220.00
2018-09-27T07:45:58.424Z,10452.00
2018-09-27T07:46:58.435Z,10868.00
2018-09-27T07:47:58.464Z,11440.00
2018-09-27T07:48:58.487Z,11596.00
2018-09-27T07:49:58.501Z,12040.00
2018-09-27T07:50:58.526Z,13188.00
2018-09-27T07:51:58.553Z,14244.00
2018-09-27T07:52:58.579Z,14512.00
2018-09-27T07:53:58.592Z,15028.00
2018-09-27T07:54:58.619Z,15252.00
2018-09-27T07:55:58.645Z,15524.00
2018-09-27T07:56:58.658Z,15828.00
2018-09-27T07:57:58.684Z,16644.00
2018-09-27T07:58:58.710Z,16892.00
2018-09-27T07:59:58.724Z,18080.00
2018-09-27T08:00:58.750Z,18400.00
2018-09-27T08:01:58.775Z,17084.00
2018-09-27T08:02:58.871Z,17124.00
2018-09-27T08:03:58.847Z,17132.00
2018-09-27T08:04:58.842Z,17020.00
2018-09-27T08:05:58.867Z,16652.00
2018-09-27T08:06:58.892Z,14988.00
2018-09-27T08:07:58.907Z,13936.00
2018-09-27T08:08:58.933Z,13368.00
2018-09-27T08:09:58.958Z,11528.00
2018-09-27T08:10:59.004Z,10672.00
2018-09-27T08:11:59.092Z,9580.00
2018-09-27T08:12:59.024Z,8976.00
2018-09-27T08:13:59.049Z,8696.00
2018-09-27T08:14:59.075Z,9028.00
2018-09-27T08:15:59.102Z,10452.00
2018-09-27T08:16:59.189Z,9544.00
2018-09-27T08:17:59.141Z,9140.00
2018-09-27T08:18:59.167Z,8820.00
2018-09-27T08:19:59.195Z,8796.00
2018-09-27T08:20:59.306Z,9224.00
2018-09-27T08:21:59.231Z,9152.00
2018-09-27T08:22:59.258Z,8860.00
2018-09-27T08:23:59.327Z,8856.00
2018-09-27T08:24:59.298Z,8732.00
2018-09-27T08:25:59.324Z,8400.00
2018-09-27T08:26:59.353Z,8356.00
2018-09-27T08:27:59.376Z,8128.00
2018-09-27T08:28:59.389Z,7680.00
2018-09-27T08:29:59.415Z,6920.00
2018-09-27T08:30:59.515Z,6004.00
2018-09-27T08:31:59.468Z,5404.00
2018-09-27T08:32:59.484Z,4820.00
2018-09-27T08:33:59.509Z,4480.00
2018-09-27T08:34:59.535Z,4260.00
2018-09-27T08:35:59.549Z,4404.00
2018-09-27T08:36:59.576Z,4328.00
2018-09-27T08:37:59.598Z,4472.00
2018-09-27T08:38:59.624Z,4440.00
2018-09-27T08:39:59.639Z,4352.00
2018-09-27T08:40:59.667Z,4196.00
2018-09-27T08:41:59.690Z,4164.00
2018-09-27T08:42:59.702Z,4008.00
2018-09-27T08:43:59.729Z,4204.00
2018-09-27T08:44:59.908Z,4048.00
2018-09-27T08:45:59.774Z,4156.00
2018-09-27T08:46:59.796Z,4104.00
2018-09-27T08:47:59.822Z,4144.00
2018-09-27T08:48:59.836Z,4140.00
2018-09-27T08:49:59.860Z,4232.00
2018-09-27T08:50:59.887Z,4268.00
2018-09-27T08:51:59.914Z,4268.00
2018-09-27T08:52:59.937Z,4240.00
2018-09-27T08:53:59.952Z,4224.00
2018-09-27T08:54:59.977Z,4204.00
2018-09-27T08:56:00.077Z,4216.00
2018-09-27T08:57:00.017Z,4200.00
2018-09-27T08:58:00.043Z,4240.00
2018-09-27T08:59:00.060Z,4276.00
2018-09-27T09:00:00.084Z,4320.00
2018-09-27T09:01:00.109Z,4372.00
2018-09-27T09:02:00.123Z,4380.00
2018-09-27T09:03:00.149Z,4396.00
2018-09-27T09:04:00.220Z,4420.00
2018-09-27T09:05:00.188Z,4420.00
2018-09-27T09:06:00.213Z,4448.00
2018-09-27T09:07:00.242Z,4452.00
2018-09-27T09:08:00.254Z,4464.00
2018-09-27T09:09:00.284Z,4432.00
2018-09-27T09:10:00.308Z,4420.00
2018-09-27T09:11:00.319Z,4488.00
2018-09-27T09:12:00.363Z,4484.00
2018-09-27T09:13:00.372Z,4492.00
2018-09-27T09:14:00.383Z,4492.00
2018-09-27T09:15:00.411Z,4496.00
2018-09-27T09:16:00.436Z,4440.00
2018-09-27T09:17:00.450Z,4456.00
2018-09-27T09:18:00.475Z,4456.00
2018-09-27T09:19:00.504Z,4488.00
2018-09-27T09:20:00.515Z,4536.00
2018-09-27T09:21:00.554Z,4608.00
2018-09-27T09:22:00.566Z,4664.00
2018-09-27T09:23:00.580Z,4648.00
2018-09-27T09:24:00.607Z,4740.00
2018-09-27T09:25:00.632Z,4716.00
2018-09-27T09:26:00.715Z,4660.00
2018-09-27T09:27:00.671Z,4700.00
2018-09-27T09:28:00.701Z,4748.00
2018-09-27T09:29:00.712Z,4708.00
2018-09-27T09:30:00.801Z,4748.00
2018-09-27T09:31:00.763Z,4836.00
2018-09-27T09:32:00.777Z,5348.00
2018-09-27T09:33:00.803Z,6604.00
2018-09-27T09:34:00.841Z,7260.00
2018-09-27T09:35:00.843Z,6884.00
2018-09-27T09:36:00.927Z,7232.00
2018-09-27T09:37:00.894Z,7868.00
2018-09-27T09:38:00.920Z,8412.00
2018-09-27T09:39:00.933Z,7444.00
2018-09-27T09:40:00.958Z,7144.00
2018-09-27T09:41:00.998Z,6988.00
2018-09-27T09:42:00.999Z,7008.00
2018-09-27T09:43:01.026Z,6868.00
2018-09-27T09:44:01.051Z,6916.00
2018-09-27T09:45:01.066Z,7560.00
2018-09-27T09:46:01.090Z,8344.00
2018-09-27T09:47:01.115Z,6992.00
2018-09-27T09:48:01.141Z,6360.00
2018-09-27T09:49:01.157Z,7184.00
2018-09-27T09:50:01.256Z,6172.00
2018-09-27T09:51:01.208Z,5692.00
2018-09-27T09:52:01.234Z,5948.00
2018-09-27T09:53:01.249Z,6268.00
2018-09-27T09:54:01.287Z,7196.00
2018-09-27T09:55:01.298Z,7356.00
2018-09-27T09:56:01.325Z,8056.00
2018-09-27T09:57:01.340Z,7788.00
2018-09-27T09:58:01.364Z,9448.00
2018-09-27T09:59:01.391Z,14000.00
2018-09-27T10:00:01.405Z,13984.00
2018-09-27T10:01:01.429Z,12408.00
2018-09-27T10:02:01.454Z,10944.00
2018-09-27T10:03:01.481Z,9596.00
2018-09-27T10:04:01.520Z,12004.00
2018-09-27T10:05:01.522Z,12340.00
2018-09-27T10:06:01.547Z,10952.00
2018-09-27T10:07:01.573Z,8316.00
2018-09-27T10:08:01.600Z,7576.00
2018-09-27T10:09:01.672Z,6776.00
2018-09-27T10:10:01.637Z,6348.00
2018-09-27T10:11:01.667Z,6196.00
2018-09-27T10:12:01.692Z,6308.00
2018-09-27T10:13:01.715Z,8732.00
2018-09-27T10:14:01.741Z,11188.00
2018-09-27T10:15:01.756Z,13944.00
2018-09-27T10:16:01.783Z,14156.00
2018-09-27T10:17:01.808Z,12936.00
2018-09-27T10:18:01.839Z,10464.00
2018-09-27T10:19:01.849Z,10548.00
2018-09-27T10:20:01.874Z,14060.00
2018-09-27T10:21:01.899Z,15608.00
2018-09-27T10:22:01.942Z,16600.00
2018-09-27T10:23:01.952Z,19200.00
2018-09-27T10:24:01.985Z,19424.00
2018-09-27T10:25:01.993Z,19328.00
2018-09-27T10:26:02.017Z,18816.00
2018-09-27T10:27:02.042Z,16924.00
2018-09-27T10:28:02.069Z,17524.00
2018-09-27T10:29:02.095Z,15064.00
2018-09-27T10:30:02.125Z,10748.00
2018-09-27T10:31:02.146Z,8428.00
2018-09-27T10:32:02.160Z,7156.00
2018-09-27T10:33:02.186Z,6992.00
2018-09-27T10:34:02.221Z,6300.00
2018-09-27T10:35:02.237Z,6164.00
2018-09-27T10:36:02.271Z,6788.00
2018-09-27T10:37:02.290Z,9412.00
2018-09-27T10:38:02.315Z,9004.00
2018-09-27T10:39:02.353Z,9020.00
2018-09-27T10:40:02.366Z,14108.00
2018-09-27T10:41:02.392Z,14800.00
2018-09-27T10:42:02.407Z,13720.00
2018-09-27T10:43:02.433Z,10896.00
2018-09-27T10:44:02.458Z,11276.00
2018-09-27T10:45:02.513Z,13584.00
2018-09-27T10:46:02.510Z,15184.00
2018-09-27T10:47:02.542Z,12240.00
2018-09-27T10:48:02.562Z,9928.00
2018-09-27T10:49:02.588Z,11388.00
2018-09-27T10:50:02.614Z,9732.00
2018-09-27T10:51:02.628Z,10308.00
2018-09-27T10:52:02.655Z,10592.00
2018-09-27T10:53:02.679Z,10164.00
2018-09-27T10:54:02.706Z,11708.00
2018-09-27T10:55:02.744Z,12828.00
2018-09-27T10:56:02.758Z,15040.00
2018-09-27T10:57:02.787Z,13364.00
2018-09-27T10:58:02.809Z,11328.00
2018-09-27T10:59:02.838Z,11232.00
2018-09-27T11:00:02.868Z,12620.00
2018-09-27T11:01:02.876Z,13536.00
2018-09-27T11:02:02.901Z,11432.00
2018-09-27T11:03:02.940Z,11596.00
2018-09-27T11:04:03.006Z,12700.00
2018-09-27T11:05:02.979Z,11368.00
2018-09-27T11:06:03.004Z,10272.00
2018-09-27T11:07:03.031Z,9456.00
2018-09-27T11:08:03.062Z,7612.00
2018-09-27T11:09:03.082Z,7000.00
2018-09-27T11:10:03.109Z,7612.00
2018-09-27T11:11:03.194Z,8228.00
2018-09-27T11:12:03.161Z,9688.00
2018-09-27T11:13:03.186Z,9976.00
2018-09-27T11:14:03.200Z,11928.00
2018-09-27T11:15:03.225Z,12320.00
2018-09-27T11:16:03.264Z,10340.00
2018-09-27T11:17:03.276Z,9692.00
2018-09-27T11:18:03.303Z,12616.00
2018-09-27T11:19:03.331Z,15396.00
2018-09-27T11:20:03.357Z,14428.00
2018-09-27T11:21:03.382Z,12104.00
2018-09-27T11:22:03.412Z,12188.00
2018-09-27T11:23:03.432Z,13016.00
2018-09-27T11:24:03.458Z,11888.00
2018-09-27T11:25:03.484Z,12104.00
2018-09-27T11:26:03.511Z,12844.00
2018-09-27T11:27:03.524Z,14536.00
2018-09-27T11:28:03.558Z,14388.00
2018-09-27T11:29:03.646Z,11048.00
2018-09-27T11:30:03.606Z,7932.00
2018-09-27T11:31:03.629Z,7524.00
2018-09-27T11:32:03.655Z,9036.00
2018-09-27T11:33:03.693Z,9932.00
2018-09-27T11:34:03.707Z,8628.00
2018-09-27T11:35:03.733Z,8064.00
2018-09-27T11:36:03.758Z,8348.00
2018-09-27T11:37:03.784Z,9992.00
2018-09-27T11:38:03.814Z,10336.00
2018-09-27T11:39:03.837Z,9156.00
2018-09-27T11:40:03.863Z,6892.00
2018-09-27T11:41:03.889Z,6228.00
2018-09-27T11:42:03.914Z,5808.00
2018-09-27T11:43:03.927Z,5980.00
2018-09-27T11:44:03.994Z,7316.00
2018-09-27T11:45:03.979Z,7436.00
2018-09-27T11:46:04.005Z,6684.00
2018-09-27T11:47:04.033Z,5976.00
2018-09-27T11:48:04.057Z,5816.00
2018-09-27T11:49:04.181Z,6132.00
2018-09-27T11:50:04.133Z,6840.00
2018-09-27T11:51:04.138Z,6832.00
2018-09-27T11:52:04.161Z,7276.00
2018-09-27T11:53:04.187Z,6996.00
2018-09-27T11:54:04.213Z,6708.00
2018-09-27T11:55:04.299Z,7836.00
2018-09-27T11:56:04.264Z,9720.00
2018-09-27T11:57:04.278Z,10256.00
2018-09-27T11:58:04.305Z,9840.00
2018-09-27T11:59:04.351Z,9084.00
2018-09-27T12:00:04.357Z,8928.00
2018-09-27T12:01:04.382Z,8584.00
2018-09-27T12:02:04.408Z,8100.00
2018-09-27T12:03:04.436Z,7352.00
2018-09-27T12:04:04.460Z,7196.00
2018-09-27T12:05:04.487Z,7200.00
2018-09-27T12:06:04.500Z,7484.00
2018-09-27T12:07:04.526Z,7932.00
2018-09-27T12:08:04.551Z,7744.00
2018-09-27T12:09:04.579Z,6900.00
2018-09-27T12:10:04.602Z,6196.00
2018-09-27T12:11:04.629Z,5688.00
2018-09-27T12:12:04.723Z,6188.00
2018-09-27T12:13:04.685Z,6648.00
2018-09-27T12:14:04.728Z,6928.00
2018-09-27T12:15:04.758Z,6788.00
2018-09-27T12:16:04.758Z,6356.00
2018-09-27T12:17:04.784Z,6140.00
2018-09-27T12:18:04.803Z,6012.00
2018-09-27T12:19:04.828Z,6120.00
2018-09-27T12:20:04.902Z,6092.00
2018-09-27T12:21:04.877Z,6132.00
2018-09-27T12:22:04.903Z,6468.00
2018-09-27T12:23:05.007Z,6392.00
2018-09-27T12:24:04.953Z,6408.00
2018-09-27T12:25:04.980Z,7284.00
2018-09-27T12:26:05.014Z,7376.00
2018-09-27T12:27:05.032Z,9292.00
2018-09-27T12:28:05.051Z,9492.00
2018-09-27T12:29:05.070Z,9228.00
2018-09-27T12:30:05.096Z,9296.00
2018-09-27T12:31:05.142Z,9912.00